Joetsu, Japan
Current Conditions -  °F | °C
As of 7:00 PM on Monday 20 Oct 2014 (Local Time) from RJNT Reporting Station
Rain Showers Rain Showers  
Wind Chill: 66°   Ceiling: 9000
Heat Index: 66°   Visibility: 6mi
Dew Point: 55°   Wind: 13mph
Humidity: 68%   Direction: 170°S
Pressure: 30.09"   Gusts: NA
Location:  37.12°N, 138.25°E
Report Text: RJNT 201000Z 17011KT 9999 -SHRA FEW020 SCT070 BKN090 19/13 Q1019
Loading
Personal Weather Stations






























Interactive Weather Map
Tropical Storm Tracking
New forecast layout! Learn more

10-Day Weather Forecast

Advertisements
Track Severe Weather on mobile